Alyssa Ann — WBG4515 — position and weather

sailwx.info

Track history (hours):
 
Tides and Currents Weather Stations Pressure Air Temp Water Temp Dewpoint Dewpoint Depression Visibility Wind Speed Wind Dir Waves Ship Positions

Alyssa Ann

Owner: Harley Marine Services, INC, SEATTLE, WA. More information available from US FCC via Universal Licensing System and Coast Guard Vessel Documentation Center.

Last reported at 2018-Jun-25 05:10 UTC. Time now 2018-Jun-25 05:40 UTC.
Position N 47°16' W 122°23'.

MMSI: 366979708.

Date/timePositionNaut miles runAvg speedWind from/ knotsBaromVisibWave heightAir tempDewpointWater temp
2018-Jun-25 05:10N 47°16' W 122°23'0 0.0
2018-Jun-24 05:34N 47°16' W 122°23'2 6.0
2018-Jun-24 05:17N 47°17' W 122°25'1 1.8
2018-Jun-24 04:56N 47°16' W 122°25'1 0.4
2018-Jun-24 02:36N 47°17' W 122°25'1 0.3
2018-Jun-23 23:13N 47°16' W 122°24'0 0.0
2018-Jun-23 22:58N 47°16' W 122°24'0 0.0
2018-Jun-23 22:28N 47°16' W 122°24'0 0.0
2018-Jun-23 22:00N 47°16' W 122°24'0 0.0
2018-Jun-23 21:24N 47°16' W 122°24'0 0.0
2018-Jun-23 20:56N 47°16' W 122°24'0 0.0
2018-Jun-23 20:25N 47°16' W 122°24'0 0.0
2018-Jun-23 19:55N 47°16' W 122°24'1 1.1
2018-Jun-23 19:25N 47°17' W 122°24'1 0.2
2018-Jun-23 16:34N 47°16' W 122°25'0 0.7
2018-Jun-23 16:29N 47°16' W 122°25'1 1.9
2018-Jun-23 15:59N 47°16' W 122°26'1 0.1
2018-Jun-23 05:22N 47°17' W 122°25'1 3.0
2018-Jun-23 04:53N 47°15' W 122°26'1 1.9
2018-Jun-23 04:23N 47°16' W 122°27'2 4.2
2018-Jun-23 03:56N 47°16' W 122°24'0 0.0
2018-Jun-23 03:26N 47°16' W 122°24'0 0.0
2018-Jun-22 19:25N 47°16' W 122°24'0 0.0
2018-Jun-22 17:25N 47°16' W 122°24'0 0.0
2018-Jun-22 15:43N 47°16' W 122°24'0 0.0
2018-Jun-22 15:25N 47°16' W 122°24'0 0.0
2018-Jun-22 14:55N 47°16' W 122°24'0 0.0
2018-Jun-22 14:13N 47°16' W 122°24'0 0.0
2018-Jun-22 13:55N 47°16' W 122°24'1 1.0
2018-Jun-22 12:32N 47°17' W 122°25'0 4.7
2018-Jun-22 12:28N 47°17' W 122°25'1 1.5
2018-Jun-22 12:00N 47°17' W 122°25'2 0.7
2018-Jun-22 09:36N 47°16' W 122°23'0 0.0
2018-Jun-22 09:29N 47°16' W 122°23'0 0.0
2018-Jun-22 08:49N 47°16' W 122°23'0 0.0
2018-Jun-22 04:19N 47°16' W 122°23'0 0.0
2018-Jun-22 02:20N 47°16' W 122°23'0 0.0
2018-Jun-22 01:44N 47°16' W 122°23'0 0.0
2018-Jun-22 01:26N 47°16' W 122°23'0 0.0
2018-Jun-22 01:00N 47°16' W 122°23'0 0.0
2018-Jun-22 00:30N 47°16' W 122°23'2 3.8
2018-Jun-22 00:00N 47°17' W 122°25'0 0.7
2018-Jun-21 23:31N 47°17' W 122°26'1 1.2
2018-Jun-21 23:00N 47°16' W 122°25'0 0.2
2018-Jun-21 22:30N 47°16' W 122°25'0 0.1
2018-Jun-21 22:00N 47°16' W 122°25'0 0.2
2018-Jun-21 21:22N 47°16' W 122°25'0 0.0
2018-Jun-21 20:58N 47°16' W 122°25'0 0.0
2018-Jun-21 20:28N 47°16' W 122°25'0 0.0
2018-Jun-21 18:13N 47°16' W 122°25'0 0.0
2018-Jun-21 16:31N 47°16' W 122°25'0 0.0
2018-Jun-21 15:06N 47°16' W 122°25'0 0.0
2018-Jun-21 14:57N 47°16' W 122°25'0 0.1
2018-Jun-21 14:28N 47°16' W 122°25'0 0.1
2018-Jun-21 14:00N 47°16' W 122°25'1 1.6
2018-Jun-21 13:30N 47°17' W 122°25'2 4.5
2018-Jun-21 12:59N 47°15' W 122°23'0 0.2
2018-Jun-21 12:29N 47°15' W 122°23'0 0.0
2018-Jun-21 06:39N 47°15' W 122°23'0 0.1
2018-Jun-21 06:13N 47°15' W 122°23'0 0.2
2018-Jun-21 05:58N 47°15' W 122°23'0 0.0
2018-Jun-21 05:28N 47°15' W 122°23'0 0.0
2018-Jun-21 04:52N 47°15' W 122°23'0 0.0
2018-Jun-21 04:28N 47°15' W 122°23'0 0.0
2018-Jun-21 03:55N 47°15' W 122°23'0 0.0
2018-Jun-21 03:28N 47°15' W 122°23'0 0.0
2018-Jun-21 02:58N 47°15' W 122°23'0 0.0
2018-Jun-21 02:28N 47°15' W 122°23'0 0.0
2018-Jun-21 01:58N 47°15' W 122°23'0 0.0
2018-Jun-21 01:28N 47°15' W 122°23'0 0.2
2018-Jun-21 00:58N 47°15' W 122°23'1 2.5
2018-Jun-21 00:30N 47°16' W 122°24'0 0.0
2018-Jun-20 23:45N 47°16' W 122°24'0 0.2
2018-Jun-20 23:30N 47°16' W 122°24'0 0.8
2018-Jun-20 22:59N 47°16' W 122°23'0 0.6
2018-Jun-20 22:12N 47°16' W 122°23'0 0.1
2018-Jun-20 21:45N 47°16' W 122°23'0 0.0
2018-Jun-20 21:18N 47°16' W 122°23'0 0.0
2018-Jun-20 21:00N 47°16' W 122°23'0 0.0
2018-Jun-20 20:30N 47°16' W 122°23'0 0.0
2018-Jun-20 20:00N 47°16' W 122°23'0 0.0
2018-Jun-20 19:30N 47°16' W 122°23'0 0.0
2018-Jun-20 19:00N 47°16' W 122°23'0 0.1
2018-Jun-20 18:30N 47°16' W 122°23'0 0.1
2018-Jun-20 17:57N 47°16' W 122°23'0 0.0
2018-Jun-20 17:30N 47°16' W 122°23'0 0.0
2018-Jun-20 12:15N 47°16' W 122°23'0 0.4
2018-Jun-20 12:00N 47°16' W 122°23'2 3.6
2018-Jun-20 11:30N 47°17' W 122°25'1 0.1
2018-Jun-20 03:10N 47°17' W 122°23'1 3.2
2018-Jun-20 02:59N 47°17' W 122°24'0 0.9
2018-Jun-20 02:29N 47°16' W 122°24'1 2.3
2018-Jun-20 02:00N 47°16' W 122°23'0 0.1
2018-Jun-20 01:26N 47°16' W 122°23'0 0.0
2018-Jun-20 00:59N 47°16' W 122°23'0 0.0
2018-Jun-20 00:17N 47°16' W 122°23'0 0.0
2018-Jun-19 23:53N 47°16' W 122°23'0 0.0
2018-Jun-19 22:44N 47°16' W 122°23'0 0.0
2018-Jun-19 22:26N 47°16' W 122°23'0 0.0
2018-Jun-19 21:59N 47°16' W 122°23'0 0.0
2018-Jun-19 21:29N 47°16' W 122°23'0 0.0
2018-Jun-19 20:44N 47°16' W 122°23'0 0.0
2018-Jun-19 20:29N 47°16' W 122°23'0 0.0
2018-Jun-19 19:14N 47°16' W 122°23'0 0.0
2018-Jun-19 18:59N 47°16' W 122°23'0 0.0
2018-Jun-19 18:29N 47°16' W 122°23'0 0.0
2018-Jun-19 17:59N 47°16' W 122°23'0 0.0
2018-Jun-19 17:29N 47°16' W 122°23'0 0.0
2018-Jun-19 16:56N 47°16' W 122°23'0 0.0
2018-Jun-19 16:29N 47°16' W 122°23'0 0.0
2018-Jun-19 15:44N 47°16' W 122°23'0 0.0
2018-Jun-19 15:29N 47°16' W 122°23'0 0.0
2018-Jun-19 14:59N 47°16' W 122°23'0 0.0
2018-Jun-19 14:23N 47°16' W 122°23'1 1.0
2018-Jun-19 13:38N 47°16' W 122°24'1 2.1
2018-Jun-19 13:20N 47°17' W 122°24'1 2.1
2018-Jun-19 12:56N 47°17' W 122°25'1 1.3
2018-Jun-19 12:26N 47°17' W 122°26'0 0.3
2018-Jun-19 11:50N 47°17' W 122°26'1 0.1
2018-Jun-18 23:40N 47°17' W 122°24'0 2.2
2018-Jun-18 23:28N 47°17' W 122°25'2 0.5
2018-Jun-18 19:34N 47°16' W 122°23'0 0.0
2018-Jun-18 16:37N 47°16' W 122°23'0 0.0
2018-Jun-18 16:25N 47°16' W 122°23'0 0.0
2018-Jun-18 11:22N 47°16' W 122°23'0 0.0
2018-Jun-18 09:31N 47°16' W 122°23'0 0.0
2018-Jun-18 09:13N 47°16' W 122°23'0 0.0
2018-Jun-18 07:01N 47°16' W 122°23'0 0.1
2018-Jun-18 06:58N 47°16' W 122°23'0 0.0
2018-Jun-18 06:07N 47°16' W 122°23'0 0.0
2018-Jun-18 05:40N 47°16' W 122°23'0 0.0
2018-Jun-18 04:13N 47°16' W 122°23'0 0.0
2018-Jun-17 15:55N 47°16' W 122°23'0 0.0
2018-Jun-17 15:13N 47°16' W 122°23'0 0.0
2018-Jun-17 15:00N 47°16' W 122°23'0 0.0
2018-Jun-17 13:51N 47°16' W 122°23'0 0.0
2018-Jun-17 13:24N 47°16' W 122°23'0 0.0
2018-Jun-17 12:54N 47°16' W 122°23'0 0.0
2018-Jun-17 12:30N 47°16' W 122°23'0 0.0
2018-Jun-17 11:58N 47°16' W 122°23'0 0.0
2018-Jun-17 11:27N 47°16' W 122°23'0 0.0
2018-Jun-17 10:48N 47°16' W 122°23'0 0.0
2018-Jun-17 10:30N 47°16' W 122°23'0 0.0
2018-Jun-17 09:56N 47°16' W 122°23'0 0.0
2018-Jun-17 09:29N 47°16' W 122°23'0 0.0
2018-Jun-17 08:49N 47°16' W 122°23'0 0.0
2018-Jun-17 08:30N 47°16' W 122°23'0 0.0
2018-Jun-17 07:49N 47°16' W 122°23'0 0.0
2018-Jun-17 07:27N 47°16' W 122°23'0 0.0
2018-Jun-17 06:59N 47°16' W 122°23'0 0.0
2018-Jun-17 06:30N 47°16' W 122°23'0 0.9
2018-Jun-17 06:00N 47°16' W 122°23'0 0.8
2018-Jun-17 05:25N 47°16' W 122°24'0 0.3
2018-Jun-17 04:00N 47°17' W 122°23'0 0.0
2018-Jun-17 03:22N 47°17' W 122°23'0 0.1
2018-Jun-16 22:01N 47°17' W 122°24'1 5.2
2018-Jun-16 21:53N 47°17' W 122°25'2 4.7
2018-Jun-16 21:30N 47°16' W 122°23'0 0.5
2018-Jun-16 21:00N 47°16' W 122°23'0 0.0
2018-Jun-16 20:30N 47°16' W 122°23'0 0.5
2018-Jun-16 19:58N 47°15' W 122°23'0 0.1
2018-Jun-16 19:30N 47°15' W 122°23'0 0.0
2018-Jun-16 19:00N 47°15' W 122°23'0 0.0
2018-Jun-16 18:30N 47°15' W 122°23'0 0.0
2018-Jun-16 18:00N 47°15' W 122°23'0 0.0
2018-Jun-16 17:28N 47°15' W 122°23'0 0.0
2018-Jun-16 17:00N 47°15' W 122°23'0 0.0
2018-Jun-16 16:30N 47°15' W 122°23'0 0.0
2018-Jun-16 16:00N 47°15' W 122°23'0 0.0
2018-Jun-16 15:30N 47°15' W 122°23'0 0.0
2018-Jun-16 14:55N 47°15' W 122°23'0 0.0
2018-Jun-16 14:29N 47°15' W 122°23'0 0.0
2018-Jun-16 13:58N 47°15' W 122°23'0 0.0
2018-Jun-16 13:28N 47°15' W 122°23'0 0.0
2018-Jun-16 13:00N 47°15' W 122°23'0 0.0
2018-Jun-16 12:23N 47°15' W 122°23'0 0.0
2018-Jun-16 11:59N 47°15' W 122°23'0 0.0
2018-Jun-16 11:30N 47°15' W 122°23'0 0.0
2018-Jun-16 09:22N 47°15' W 122°23'0 0.0
2018-Jun-16 09:00N 47°15' W 122°23'0 0.0
2018-Jun-16 07:51N 47°15' W 122°23'0 0.0
2018-Jun-16 07:30N 47°15' W 122°23'0 0.0
2018-Jun-16 06:29N 47°15' W 122°23'0 0.1
2018-Jun-16 05:54N 47°15' W 122°23'0 0.0
2018-Jun-16 05:27N 47°15' W 122°23'0 0.0
2018-Jun-16 04:59N 47°15' W 122°23'0 0.0
2018-Jun-16 04:30N 47°15' W 122°23'0 0.0
2018-Jun-16 04:00N 47°15' W 122°23'0 0.0
2018-Jun-16 03:30N 47°15' W 122°23'0 0.0
2018-Jun-16 03:00N 47°15' W 122°23'0 0.0
2018-Jun-16 02:30N 47°15' W 122°23'0 0.0
2018-Jun-16 02:00N 47°15' W 122°23'0 0.0
2018-Jun-16 01:30N 47°15' W 122°23'0 0.0
2018-Jun-16 01:00N 47°15' W 122°23'0 0.0
2018-Jun-16 00:30N 47°15' W 122°23'0 0.0
2018-Jun-16 00:00N 47°15' W 122°23'0 0.0
2018-Jun-15 23:07N 47°15' W 122°23'0 0.1
2018-Jun-15 23:00N 47°15' W 122°23'0 0.0
2018-Jun-15 22:28N 47°15' W 122°23'0 0.0
2018-Jun-15 21:57N 47°15' W 122°23'0 0.0
2018-Jun-15 21:25N 47°15' W 122°23'0 0.0
2018-Jun-15 20:58N 47°15' W 122°23'0 0.0
2018-Jun-15 20:28N 47°15' W 122°23'0 0.0
2018-Jun-15 19:58N 47°15' W 122°23'0 0.0
2018-Jun-15 18:36N 47°15' W 122°23'0 0.0
2018-Jun-15 18:30N 47°15' W 122°23'0 0.5
2018-Jun-15 17:57N 47°16' W 122°23'2 0.2
2018-Jun-15 09:17N 47°17' W 122°24'1 3.1
2018-Jun-15 09:00N 47°17' W 122°25'3 5.7
2018-Jun-15 08:30N 47°19' W 122°28'4 7.3
2018-Jun-15 08:00N 47°22' W 122°24'3 5.4
2018-Jun-15 07:30N 47°24' W 122°23'3 6.6
2018-Jun-15 07:00N 47°28' W 122°24'3 6.6
2018-Jun-15 06:30N 47°31' W 122°24'3 6.6
2018-Jun-15 06:00N 47°34' W 122°26'3 5.4
2018-Jun-15 05:30N 47°36' W 122°23'  
Track history (hours):
 
Tides and Currents Weather Stations Pressure Air Temp Water Temp Dewpoint Dewpoint Depression Visibility Wind Speed Wind Dir Waves Ship Positions

Alyssa Ann

Owner: Harley Marine Services, INC, SEATTLE, WA. More information available from US FCC via Universal Licensing System and Coast Guard Vessel Documentation Center.

Last reported at 2018-Jun-25 05:10 UTC. Time now 2018-Jun-25 05:40 UTC.
Position N 47°16' W 122°23'.

MMSI: 366979708.

Date/timePositionNaut miles runAvg speedWind from/ knotsBaromVisibWave heightAir tempDewpointWater temp
2018-Jun-25 05:10N 47°16' W 122°23'0 0.0
2018-Jun-24 05:34N 47°16' W 122°23'2 6.0
2018-Jun-24 05:17N 47°17' W 122°25'1 1.8
2018-Jun-24 04:56N 47°16' W 122°25'1 0.4
2018-Jun-24 02:36N 47°17' W 122°25'1 0.3
2018-Jun-23 23:13N 47°16' W 122°24'0 0.0
2018-Jun-23 22:58N 47°16' W 122°24'0 0.0
2018-Jun-23 22:28N 47°16' W 122°24'0 0.0
2018-Jun-23 22:00N 47°16' W 122°24'0 0.0
2018-Jun-23 21:24N 47°16' W 122°24'0 0.0
2018-Jun-23 20:56N 47°16' W 122°24'0 0.0
2018-Jun-23 20:25N 47°16' W 122°24'0 0.0
2018-Jun-23 19:55N 47°16' W 122°24'1 1.1
2018-Jun-23 19:25N 47°17' W 122°24'1 0.2
2018-Jun-23 16:34N 47°16' W 122°25'0 0.7
2018-Jun-23 16:29N 47°16' W 122°25'1 1.9
2018-Jun-23 15:59N 47°16' W 122°26'1 0.1
2018-Jun-23 05:22N 47°17' W 122°25'1 3.0
2018-Jun-23 04:53N 47°15' W 122°26'1 1.9
2018-Jun-23 04:23N 47°16' W 122°27'2 4.2
2018-Jun-23 03:56N 47°16' W 122°24'0 0.0
2018-Jun-23 03:26N 47°16' W 122°24'0 0.0
2018-Jun-22 19:25N 47°16' W 122°24'0 0.0
2018-Jun-22 17:25N 47°16' W 122°24'0 0.0
2018-Jun-22 15:43N 47°16' W 122°24'0 0.0
2018-Jun-22 15:25N 47°16' W 122°24'0 0.0
2018-Jun-22 14:55N 47°16' W 122°24'0 0.0
2018-Jun-22 14:13N 47°16' W 122°24'0 0.0
2018-Jun-22 13:55N 47°16' W 122°24'1 1.0
2018-Jun-22 12:32N 47°17' W 122°25'0 4.7
2018-Jun-22 12:28N 47°17' W 122°25'1 1.5
2018-Jun-22 12:00N 47°17' W 122°25'2 0.7
2018-Jun-22 09:36N 47°16' W 122°23'0 0.0
2018-Jun-22 09:29N 47°16' W 122°23'0 0.0
2018-Jun-22 08:49N 47°16' W 122°23'0 0.0
2018-Jun-22 04:19N 47°16' W 122°23'0 0.0
2018-Jun-22 02:20N 47°16' W 122°23'0 0.0
2018-Jun-22 01:44N 47°16' W 122°23'0 0.0
2018-Jun-22 01:26N 47°16' W 122°23'0 0.0
2018-Jun-22 01:00N 47°16' W 122°23'0 0.0
2018-Jun-22 00:30N 47°16' W 122°23'2 3.8
2018-Jun-22 00:00N 47°17' W 122°25'0 0.7
2018-Jun-21 23:31N 47°17' W 122°26'1 1.2
2018-Jun-21 23:00N 47°16' W 122°25'0 0.2
2018-Jun-21 22:30N 47°16' W 122°25'0 0.1
2018-Jun-21 22:00N 47°16' W 122°25'0 0.2
2018-Jun-21 21:22N 47°16' W 122°25'0 0.0
2018-Jun-21 20:58N 47°16' W 122°25'0 0.0
2018-Jun-21 20:28N 47°16' W 122°25'0 0.0
2018-Jun-21 18:13N 47°16' W 122°25'0 0.0
2018-Jun-21 16:31N 47°16' W 122°25'0 0.0
2018-Jun-21 15:06N 47°16' W 122°25'0 0.0
2018-Jun-21 14:57N 47°16' W 122°25'0 0.1
2018-Jun-21 14:28N 47°16' W 122°25'0 0.1
2018-Jun-21 14:00N 47°16' W 122°25'1 1.6
2018-Jun-21 13:30N 47°17' W 122°25'2 4.5
2018-Jun-21 12:59N 47°15' W 122°23'0 0.2
2018-Jun-21 12:29N 47°15' W 122°23'0 0.0
2018-Jun-21 06:39N 47°15' W 122°23'0 0.1
2018-Jun-21 06:13N 47°15' W 122°23'0 0.2
2018-Jun-21 05:58N 47°15' W 122°23'0 0.0
2018-Jun-21 05:28N 47°15' W 122°23'0 0.0
2018-Jun-21 04:52N 47°15' W 122°23'0 0.0
2018-Jun-21 04:28N 47°15' W 122°23'0 0.0
2018-Jun-21 03:55N 47°15' W 122°23'0 0.0
2018-Jun-21 03:28N 47°15' W 122°23'0 0.0
2018-Jun-21 02:58N 47°15' W 122°23'0 0.0
2018-Jun-21 02:28N 47°15' W 122°23'0 0.0
2018-Jun-21 01:58N 47°15' W 122°23'0 0.0
2018-Jun-21 01:28N 47°15' W 122°23'0 0.2
2018-Jun-21 00:58N 47°15' W 122°23'1 2.5
2018-Jun-21 00:30N 47°16' W 122°24'0 0.0
2018-Jun-20 23:45N 47°16' W 122°24'0 0.2
2018-Jun-20 23:30N 47°16' W 122°24'0 0.8
2018-Jun-20 22:59N 47°16' W 122°23'0 0.6
2018-Jun-20 22:12N 47°16' W 122°23'0 0.1
2018-Jun-20 21:45N 47°16' W 122°23'0 0.0
2018-Jun-20 21:18N 47°16' W 122°23'0 0.0
2018-Jun-20 21:00N 47°16' W 122°23'0 0.0
2018-Jun-20 20:30N 47°16' W 122°23'0 0.0
2018-Jun-20 20:00N 47°16' W 122°23'0 0.0
2018-Jun-20 19:30N 47°16' W 122°23'0 0.0
2018-Jun-20 19:00N 47°16' W 122°23'0 0.1
2018-Jun-20 18:30N 47°16' W 122°23'0 0.1
2018-Jun-20 17:57N 47°16' W 122°23'0 0.0
2018-Jun-20 17:30N 47°16' W 122°23'0 0.0
2018-Jun-20 12:15N 47°16' W 122°23'0 0.4
2018-Jun-20 12:00N 47°16' W 122°23'2 3.6
2018-Jun-20 11:30N 47°17' W 122°25'1 0.1
2018-Jun-20 03:10N 47°17' W 122°23'1 3.2
2018-Jun-20 02:59N 47°17' W 122°24'0 0.9
2018-Jun-20 02:29N 47°16' W 122°24'1 2.3
2018-Jun-20 02:00N 47°16' W 122°23'0 0.1
2018-Jun-20 01:26N 47°16' W 122°23'0 0.0
2018-Jun-20 00:59N 47°16' W 122°23'0 0.0
2018-Jun-20 00:17N 47°16' W 122°23'0 0.0
2018-Jun-19 23:53N 47°16' W 122°23'0 0.0
2018-Jun-19 22:44N 47°16' W 122°23'0 0.0
2018-Jun-19 22:26N 47°16' W 122°23'0 0.0
2018-Jun-19 21:59N 47°16' W 122°23'0 0.0
2018-Jun-19 21:29N 47°16' W 122°23'0 0.0
2018-Jun-19 20:44N 47°16' W 122°23'0 0.0
2018-Jun-19 20:29N 47°16' W 122°23'0 0.0
2018-Jun-19 19:14N 47°16' W 122°23'0 0.0
2018-Jun-19 18:59N 47°16' W 122°23'0 0.0
2018-Jun-19 18:29N 47°16' W 122°23'0 0.0
2018-Jun-19 17:59N 47°16' W 122°23'0 0.0
2018-Jun-19 17:29N 47°16' W 122°23'0 0.0
2018-Jun-19 16:56N 47°16' W 122°23'0 0.0
2018-Jun-19 16:29N 47°16' W 122°23'0 0.0
2018-Jun-19 15:44N 47°16' W 122°23'0 0.0
2018-Jun-19 15:29N 47°16' W 122°23'0 0.0
2018-Jun-19 14:59N 47°16' W 122°23'0 0.0
2018-Jun-19 14:23N 47°16' W 122°23'1 1.0
2018-Jun-19 13:38N 47°16' W 122°24'1 2.1
2018-Jun-19 13:20N 47°17' W 122°24'1 2.1
2018-Jun-19 12:56N 47°17' W 122°25'1 1.3
2018-Jun-19 12:26N 47°17' W 122°26'0 0.3
2018-Jun-19 11:50N 47°17' W 122°26'1 0.1
2018-Jun-18 23:40N 47°17' W 122°24'0 2.2
2018-Jun-18 23:28N 47°17' W 122°25'2 0.5
2018-Jun-18 19:34N 47°16' W 122°23'0 0.0
2018-Jun-18 16:37N 47°16' W 122°23'0 0.0
2018-Jun-18 16:25N 47°16' W 122°23'0 0.0
2018-Jun-18 11:22N 47°16' W 122°23'0 0.0
2018-Jun-18 09:31N 47°16' W 122°23'0 0.0
2018-Jun-18 09:13N 47°16' W 122°23'0 0.0
2018-Jun-18 07:01N 47°16' W 122°23'0 0.1
2018-Jun-18 06:58N 47°16' W 122°23'0 0.0
2018-Jun-18 06:07N 47°16' W 122°23'0 0.0
2018-Jun-18 05:40N 47°16' W 122°23'0 0.0
2018-Jun-18 04:13N 47°16' W 122°23'0 0.0
2018-Jun-17 15:55N 47°16' W 122°23'0 0.0
2018-Jun-17 15:13N 47°16' W 122°23'0 0.0
2018-Jun-17 15:00N 47°16' W 122°23'0 0.0
2018-Jun-17 13:51N 47°16' W 122°23'0 0.0
2018-Jun-17 13:24N 47°16' W 122°23'0 0.0
2018-Jun-17 12:54N 47°16' W 122°23'0 0.0
2018-Jun-17 12:30N 47°16' W 122°23'0 0.0
2018-Jun-17 11:58N 47°16' W 122°23'0 0.0
2018-Jun-17 11:27N 47°16' W 122°23'0 0.0
2018-Jun-17 10:48N 47°16' W 122°23'0 0.0
2018-Jun-17 10:30N 47°16' W 122°23'0 0.0
2018-Jun-17 09:56N 47°16' W 122°23'0 0.0
2018-Jun-17 09:29N 47°16' W 122°23'0 0.0
2018-Jun-17 08:49N 47°16' W 122°23'0 0.0
2018-Jun-17 08:30N 47°16' W 122°23'0 0.0
2018-Jun-17 07:49N 47°16' W 122°23'0 0.0
2018-Jun-17 07:27N 47°16' W 122°23'0 0.0
2018-Jun-17 06:59N 47°16' W 122°23'0 0.0
2018-Jun-17 06:30N 47°16' W 122°23'0 0.9
2018-Jun-17 06:00N 47°16' W 122°23'0 0.8
2018-Jun-17 05:25N 47°16' W 122°24'0 0.3
2018-Jun-17 04:00N 47°17' W 122°23'0 0.0
2018-Jun-17 03:22N 47°17' W 122°23'0 0.1
2018-Jun-16 22:01N 47°17' W 122°24'1 5.2
2018-Jun-16 21:53N 47°17' W 122°25'2 4.7
2018-Jun-16 21:30N 47°16' W 122°23'0 0.5
2018-Jun-16 21:00N 47°16' W 122°23'0 0.0
2018-Jun-16 20:30N 47°16' W 122°23'0 0.5
2018-Jun-16 19:58N 47°15' W 122°23'0 0.1
2018-Jun-16 19:30N 47°15' W 122°23'0 0.0
2018-Jun-16 19:00N 47°15' W 122°23'0 0.0
2018-Jun-16 18:30N 47°15' W 122°23'0 0.0
2018-Jun-16 18:00N 47°15' W 122°23'0 0.0
2018-Jun-16 17:28N 47°15' W 122°23'0 0.0
2018-Jun-16 17:00N 47°15' W 122°23'0 0.0
2018-Jun-16 16:30N 47°15' W 122°23'0 0.0
2018-Jun-16 16:00N 47°15' W 122°23'0 0.0
2018-Jun-16 15:30N 47°15' W 122°23'0 0.0
2018-Jun-16 14:55N 47°15' W 122°23'0 0.0
2018-Jun-16 14:29N 47°15' W 122°23'0 0.0
2018-Jun-16 13:58N 47°15' W 122°23'0 0.0
2018-Jun-16 13:28N 47°15' W 122°23'0 0.0
2018-Jun-16 13:00N 47°15' W 122°23'0 0.0
2018-Jun-16 12:23N 47°15' W 122°23'0 0.0
2018-Jun-16 11:59N 47°15' W 122°23'0 0.0
2018-Jun-16 11:30N 47°15' W 122°23'0 0.0
2018-Jun-16 09:22N 47°15' W 122°23'0 0.0
2018-Jun-16 09:00N 47°15' W 122°23'0 0.0
2018-Jun-16 07:51N 47°15' W 122°23'0 0.0
2018-Jun-16 07:30N 47°15' W 122°23'0 0.0
2018-Jun-16 06:29N 47°15' W 122°23'0 0.1
2018-Jun-16 05:54N 47°15' W 122°23'0 0.0
2018-Jun-16 05:27N 47°15' W 122°23'0 0.0
2018-Jun-16 04:59N 47°15' W 122°23'0 0.0
2018-Jun-16 04:30N 47°15' W 122°23'0 0.0
2018-Jun-16 04:00N 47°15' W 122°23'0 0.0
2018-Jun-16 03:30N 47°15' W 122°23'0 0.0
2018-Jun-16 03:00N 47°15' W 122°23'0 0.0
2018-Jun-16 02:30N 47°15' W 122°23'0 0.0
2018-Jun-16 02:00N 47°15' W 122°23'0 0.0
2018-Jun-16 01:30N 47°15' W 122°23'0 0.0
2018-Jun-16 01:00N 47°15' W 122°23'0 0.0
2018-Jun-16 00:30N 47°15' W 122°23'0 0.0
2018-Jun-16 00:00N 47°15' W 122°23'0 0.0
2018-Jun-15 23:07N 47°15' W 122°23'0 0.1
2018-Jun-15 23:00N 47°15' W 122°23'0 0.0
2018-Jun-15 22:28N 47°15' W 122°23'0 0.0
2018-Jun-15 21:57N 47°15' W 122°23'0 0.0
2018-Jun-15 21:25N 47°15' W 122°23'0 0.0
2018-Jun-15 20:58N 47°15' W 122°23'0 0.0
2018-Jun-15 20:28N 47°15' W 122°23'0 0.0
2018-Jun-15 19:58N 47°15' W 122°23'0 0.0
2018-Jun-15 18:36N 47°15' W 122°23'0 0.0
2018-Jun-15 18:30N 47°15' W 122°23'0 0.5
2018-Jun-15 17:57N 47°16' W 122°23'2 0.2
2018-Jun-15 09:17N 47°17' W 122°24'1 3.1
2018-Jun-15 09:00N 47°17' W 122°25'3 5.7
2018-Jun-15 08:30N 47°19' W 122°28'4 7.3
2018-Jun-15 08:00N 47°22' W 122°24'3 5.4
2018-Jun-15 07:30N 47°24' W 122°23'3 6.6
2018-Jun-15 07:00N 47°28' W 122°24'3 6.6
2018-Jun-15 06:30N 47°31' W 122°24'3 6.6
2018-Jun-15 06:00N 47°34' W 122°26'3 5.4
2018-Jun-15 05:30N 47°36' W 122°23'  

Dump ship's entire track history